createdAt,value
2018-11-22T12:17:56.335Z,24.73
2018-11-22T12:20:23.805Z,25.07
2018-11-22T12:22:52.655Z,27.02
2018-11-22T12:25:22.164Z,25.57
2018-11-22T12:27:51.226Z,24.90
2018-11-22T12:30:20.148Z,26.03
2018-11-22T12:32:53.015Z,26.27
2018-11-22T12:35:25.891Z,26.40
2018-11-22T12:37:58.784Z,25.40
2018-11-22T12:40:26.248Z,25.80
2018-11-22T12:42:53.732Z,24.10
2018-11-22T12:45:21.185Z,26.97
2018-11-22T12:47:49.172Z,26.02
2018-11-22T12:50:16.623Z,26.75
2018-11-22T12:52:44.067Z,24.60
2018-11-22T12:55:12.015Z,24.77
2018-11-22T12:57:39.484Z,25.90
2018-11-22T13:00:06.971Z,24.92
2018-11-22T13:02:34.425Z,25.07
2018-11-22T13:05:01.923Z,24.98
2018-11-22T13:07:29.447Z,23.87
2018-11-22T13:09:56.938Z,25.63
2018-11-22T13:12:24.391Z,26.20
2018-11-22T13:14:51.863Z,25.43
2018-11-22T13:17:19.338Z,24.75
2018-11-22T13:19:46.815Z,24.63
2018-11-22T13:22:14.267Z,24.07
2018-11-22T13:24:41.795Z,25.63
2018-11-22T13:27:09.311Z,24.83
2018-11-22T13:29:36.754Z,24.90
2018-11-22T13:32:04.209Z,25.37
2018-11-22T13:34:31.647Z,25.32
2018-11-22T13:36:59.123Z,25.97
2018-11-22T13:39:26.551Z,26.60
2018-11-22T13:41:53.998Z,24.90
2018-11-22T13:44:21.888Z,24.72
2018-11-22T13:46:49.367Z,24.37
2018-11-22T13:49:17.635Z,24.87
2018-11-22T13:51:45.094Z,24.90
2018-11-22T13:54:12.537Z,25.40
2018-11-22T13:56:39.988Z,25.00
2018-11-22T13:59:07.434Z,23.62
2018-11-22T14:01:34.898Z,26.43
2018-11-22T14:04:02.407Z,25.23
2018-11-22T14:06:30.122Z,25.20
2018-11-22T14:08:57.584Z,24.20
2018-11-22T14:11:25.131Z,25.77
2018-11-22T14:13:52.573Z,24.83
2018-11-22T14:16:20.056Z,25.47
2018-11-22T14:18:47.534Z,26.80
2018-11-22T14:21:15.174Z,25.40
2018-11-22T14:23:42.625Z,26.43
2018-11-22T14:26:10.111Z,26.15
2018-11-22T14:28:37.621Z,25.40
2018-11-22T14:31:05.067Z,25.50
2018-11-22T14:33:32.518Z,23.97
2018-11-22T14:35:59.984Z,24.57
2018-11-22T14:38:27.439Z,24.43
2018-11-22T14:40:54.897Z,23.92
2018-11-22T14:43:22.359Z,26.43
2018-11-22T14:45:49.819Z,24.92
2018-11-22T14:48:17.281Z,24.03
2018-11-22T14:50:44.741Z,24.80
2018-11-22T14:53:12.219Z,26.37
2018-11-22T14:55:39.782Z,25.15
2018-11-22T14:58:07.630Z,26.47
2018-11-22T15:00:35.103Z,25.33
2018-11-22T15:03:02.546Z,25.77
2018-11-22T15:05:29.991Z,26.60
2018-11-22T15:07:57.439Z,25.60
2018-11-22T15:10:24.933Z,26.00
2018-11-22T15:12:52.398Z,27.15
2018-11-22T15:15:21.270Z,27.87
2018-11-22T15:17:48.765Z,28.60
2018-11-22T15:20:17.522Z,27.02
2018-11-22T15:22:45.916Z,27.23
2018-11-22T15:25:14.801Z,29.33
2018-11-22T15:27:42.974Z,30.63
2018-11-22T15:30:11.789Z,29.50
2018-11-22T15:32:39.280Z,29.57
2018-11-22T15:35:06.740Z,28.57
2018-11-22T15:37:34.183Z,29.20
2018-11-22T15:40:01.647Z,29.05
2018-11-22T15:42:29.107Z,29.47
2018-11-22T15:44:56.546Z,29.25
2018-11-22T15:47:24.008Z,32.73
2018-11-22T15:49:51.447Z,30.08
2018-11-22T15:52:18.903Z,32.37
2018-11-22T15:54:46.346Z,29.07
2018-11-22T15:57:13.874Z,29.83
2018-11-22T15:59:41.303Z,33.10
2018-11-22T16:02:08.791Z,29.57
2018-11-22T16:04:36.247Z,32.58
2018-11-22T16:07:03.719Z,30.77
2018-11-22T16:09:31.197Z,31.23
2018-11-22T16:11:58.660Z,31.43
2018-11-22T16:14:26.133Z,31.23
2018-11-22T16:16:53.590Z,31.83
2018-11-22T16:19:21.031Z,30.95
2018-11-22T16:21:48.479Z,30.23
2018-11-22T16:24:15.939Z,30.55
2018-11-22T16:26:43.387Z,30.70
2018-11-22T16:29:10.843Z,30.30
2018-11-22T16:31:38.291Z,29.97
2018-11-22T16:34:05.727Z,29.52
2018-11-22T16:36:33.188Z,29.33
2018-11-22T16:39:00.662Z,29.57
2018-11-22T16:41:28.124Z,34.53
2018-11-22T16:43:55.605Z,31.60
2018-11-22T16:46:23.070Z,30.57
2018-11-22T16:48:50.508Z,27.60
2018-11-22T16:51:17.967Z,29.33
2018-11-22T16:53:45.424Z,30.35
2018-11-22T16:56:12.892Z,29.83
2018-11-22T16:58:40.356Z,28.52
2018-11-22T17:01:07.793Z,31.07
2018-11-22T17:03:35.270Z,28.27
2018-11-22T17:06:02.723Z,29.20
2018-11-22T17:08:30.189Z,27.95
2018-11-22T17:10:57.599Z,30.37
2018-11-22T17:13:25.054Z,30.37
2018-11-22T17:15:52.499Z,29.70
2018-11-22T17:18:19.934Z,29.55
2018-11-22T17:20:47.366Z,29.73
2018-11-22T17:23:14.798Z,28.45
2018-11-22T17:25:42.251Z,30.20
2018-11-22T17:28:10.027Z,28.55
2018-11-22T17:30:39.833Z,29.30
2018-11-22T17:33:07.278Z,29.10
2018-11-22T17:35:34.723Z,28.85
2018-11-22T17:38:03.564Z,28.43
2018-11-22T17:40:39.945Z,27.87
2018-11-22T17:43:07.474Z,29.60
2018-11-22T17:45:37.423Z,28.83
2018-11-22T17:48:04.923Z,30.07
2018-11-22T17:50:33.001Z,30.80
2018-11-22T17:53:00.708Z,31.10
2018-11-22T17:58:02.828Z,29.87
2018-11-22T18:00:31.983Z,29.30
2018-11-22T18:03:00.596Z,30.00
2018-11-22T18:05:28.060Z,29.47
2018-11-22T18:07:55.514Z,28.27
2018-11-22T18:10:24.452Z,30.37
2018-11-22T18:12:53.189Z,30.30
2018-11-22T18:15:21.523Z,29.13
2018-11-22T18:17:49.432Z,29.03
2018-11-22T18:20:20.434Z,27.27
2018-11-22T18:22:48.703Z,28.20
2018-11-22T18:25:18.320Z,28.37
2018-11-22T18:27:45.887Z,28.10
2018-11-22T18:30:14.761Z,28.40
2018-11-22T18:32:42.643Z,28.33
2018-11-22T18:35:10.803Z,29.23
2018-11-22T18:37:38.458Z,26.17
2018-11-22T18:40:05.903Z,27.35
2018-11-22T18:42:33.685Z,27.83
2018-11-22T18:45:01.126Z,28.60
2018-11-22T18:47:28.589Z,27.77
2018-11-22T18:49:56.034Z,28.10
2018-11-22T18:52:23.551Z,27.45
2018-11-22T18:54:50.988Z,26.43
2018-11-22T18:57:18.467Z,26.93
2018-11-22T18:59:45.907Z,28.63
2018-11-22T19:02:13.354Z,26.80
2018-11-22T19:04:40.786Z,26.90
2018-11-22T19:07:08.217Z,28.92
2018-11-22T19:09:35.660Z,26.57
2018-11-22T19:12:03.958Z,27.00
2018-11-22T19:14:31.419Z,27.87
2018-11-22T19:16:58.849Z,27.13
2018-11-22T19:19:26.299Z,27.60
2018-11-22T19:21:53.749Z,26.23
2018-11-22T19:24:21.590Z,26.60
2018-11-22T19:26:49.281Z,26.53
2018-11-22T19:29:16.740Z,28.17
2018-11-22T19:31:44.183Z,27.43
2018-11-22T19:34:11.630Z,27.60
2018-11-22T19:36:39.071Z,26.30
2018-11-22T19:39:06.502Z,26.55
2018-11-22T19:41:33.947Z,28.30
2018-11-22T19:44:01.382Z,27.32
2018-11-22T19:46:28.822Z,27.90
2018-11-22T19:48:56.275Z,29.40
2018-11-22T19:51:23.722Z,28.87
2018-11-22T19:53:51.169Z,25.52
2018-11-22T19:56:18.607Z,29.30
2018-11-22T19:58:46.059Z,25.02
2018-11-22T20:01:13.962Z,27.03
2018-11-22T20:03:41.426Z,27.37
2018-11-22T20:06:08.909Z,26.37
2018-11-22T20:08:36.354Z,26.77
2018-11-22T20:11:03.789Z,25.95
2018-11-22T20:13:31.232Z,24.57
2018-11-22T20:15:58.689Z,26.73
2018-11-22T20:18:26.138Z,27.77
2018-11-22T20:20:53.581Z,26.00
2018-11-22T20:23:21.926Z,25.50
2018-11-22T20:25:48.508Z,27.62
2018-11-22T20:28:15.958Z,26.07
2018-11-22T20:30:44.786Z,25.00
2018-11-22T20:33:12.225Z,26.80
2018-11-22T20:35:39.702Z,27.25
2018-11-22T20:38:07.262Z,27.60
2018-11-22T20:40:34.709Z,26.27
2018-11-22T20:43:02.315Z,27.57
2018-11-22T20:45:30.455Z,25.43
2018-11-22T20:48:00.964Z,26.47
2018-11-22T20:50:28.949Z,27.03
2018-11-22T20:52:56.438Z,27.03
2018-11-22T20:55:25.305Z,27.75
2018-11-22T20:57:54.308Z,26.50
2018-11-22T21:00:23.190Z,26.93
2018-11-22T21:02:50.637Z,27.17
2018-11-22T21:05:18.921Z,26.37
2018-11-22T21:07:46.692Z,27.70
2018-11-22T21:10:15.590Z,26.55
2018-11-22T21:12:43.030Z,25.93
2018-11-22T21:15:10.736Z,26.95
2018-11-22T21:17:38.574Z,27.43
2018-11-22T21:20:06.022Z,26.67
2018-11-22T21:22:33.471Z,26.80
2018-11-22T21:25:01.046Z,29.07
2018-11-22T21:27:28.488Z,27.47
2018-11-22T21:29:55.925Z,27.98
2018-11-22T21:32:23.447Z,29.53
2018-11-22T21:34:50.898Z,27.73
2018-11-22T21:37:18.331Z,27.17
2018-11-22T21:39:45.777Z,26.82
2018-11-22T21:42:13.219Z,26.77
2018-11-22T21:44:40.668Z,27.60
2018-11-22T21:47:08.113Z,27.77
2018-11-22T21:49:35.581Z,28.83
2018-11-22T21:52:03.019Z,26.20
2018-11-22T21:54:30.566Z,27.82
2018-11-22T21:56:57.990Z,27.40
2018-11-22T21:59:25.433Z,28.10
2018-11-22T22:01:52.935Z,29.83
2018-11-22T22:04:20.397Z,27.70
2018-11-22T22:06:47.837Z,27.03
2018-11-22T22:09:15.283Z,27.70
2018-11-22T22:11:42.768Z,28.77
2018-11-22T22:14:10.210Z,27.05
2018-11-22T22:16:37.646Z,28.33
2018-11-22T22:19:05.106Z,29.27
2018-11-22T22:21:32.537Z,29.57
2018-11-22T22:23:59.979Z,28.35
2018-11-22T22:26:27.431Z,27.00
2018-11-22T22:28:54.867Z,29.05
2018-11-22T22:31:22.290Z,28.40
2018-11-22T22:33:50.462Z,30.10
2018-11-22T22:36:17.913Z,30.75
2018-11-22T22:38:45.893Z,28.50
2018-11-22T22:41:13.326Z,30.20
2018-11-22T22:43:40.846Z,30.10
2018-11-22T22:46:08.476Z,30.10
2018-11-22T22:48:35.908Z,28.70
2018-11-22T22:51:03.351Z,27.90
2018-11-22T22:53:30.775Z,29.97
2018-11-22T22:55:58.236Z,29.67
2018-11-22T22:58:25.687Z,28.17
2018-11-22T23:00:53.150Z,28.23
2018-11-22T23:03:20.577Z,27.00
2018-11-22T23:05:48.022Z,27.77
2018-11-22T23:08:15.467Z,28.00
2018-11-22T23:10:42.905Z,28.90
2018-11-22T23:13:10.499Z,26.57
2018-11-22T23:15:37.961Z,27.95
2018-11-22T23:18:05.396Z,26.70
2018-11-22T23:20:34.211Z,27.40
2018-11-22T23:23:01.658Z,28.73
2018-11-22T23:25:29.738Z,27.82
2018-11-22T23:27:57.229Z,28.17
2018-11-22T23:30:26.842Z,27.37
2018-11-22T23:32:56.423Z,28.40
2018-11-22T23:35:23.396Z,26.60
2018-11-22T23:37:51.231Z,27.40
2018-11-22T23:40:19.938Z,28.55
2018-11-22T23:42:47.569Z,26.40
2018-11-22T23:45:16.260Z,27.05
2018-11-22T23:47:44.122Z,26.73
2018-11-22T23:50:13.114Z,29.00
2018-11-22T23:52:41.082Z,28.53
2018-11-22T23:55:09.069Z,27.37
2018-11-22T23:57:36.714Z,28.57
